createdAt,value
2022-10-17T00:00:00.597Z,12.5
2022-10-17T00:03:00.603Z,12.4
2022-10-17T00:06:00.610Z,12.4
2022-10-17T00:09:00.638Z,12.3
2022-10-17T00:12:00.620Z,12.3
2022-10-17T00:15:00.631Z,12.2
2022-10-17T00:18:00.635Z,12.2
2022-10-17T00:21:00.645Z,12.1
2022-10-17T00:24:00.648Z,12.1
2022-10-17T00:27:00.673Z,12.1
2022-10-17T00:30:00.658Z,12
2022-10-17T00:33:00.667Z,12
2022-10-17T00:36:00.677Z,12
2022-10-17T00:39:00.684Z,12
2022-10-17T00:42:00.693Z,12
2022-10-17T00:45:00.722Z,11.9
2022-10-17T00:48:00.720Z,11.9
2022-10-17T00:51:00.713Z,11.8
2022-10-17T00:54:00.715Z,11.9
2022-10-17T00:57:00.727Z,11.9
2022-10-17T01:00:00.730Z,11.8
2022-10-17T01:03:00.766Z,11.8
2022-10-17T01:06:00.746Z,11.8
2022-10-17T01:09:00.758Z,11.8
2022-10-17T01:12:00.767Z,11.8
2022-10-17T01:15:00.771Z,11.8
2022-10-17T01:18:00.779Z,11.9
2022-10-17T01:21:00.810Z,12
2022-10-17T01:24:00.797Z,12.1
2022-10-17T01:27:00.804Z,12.1
2022-10-17T01:30:00.807Z,12.1
2022-10-17T01:33:00.820Z,12.2
2022-10-17T01:36:03.151Z,12.1
2022-10-17T01:39:00.856Z,12.1
2022-10-17T01:42:00.846Z,12.1
2022-10-17T01:45:00.854Z,12.1
2022-10-17T01:48:00.867Z,12.1
2022-10-17T01:51:00.874Z,12.1
2022-10-17T01:54:00.884Z,12.1
2022-10-17T01:57:00.918Z,12.1
2022-10-17T02:00:00.905Z,12.1
2022-10-17T02:03:00.915Z,12
2022-10-17T02:06:00.921Z,12
2022-10-17T02:09:00.934Z,11.9
2022-10-17T02:12:00.949Z,11.9
2022-10-17T02:15:00.982Z,11.9
2022-10-17T02:18:00.963Z,11.8
2022-10-17T02:21:00.974Z,11.8
2022-10-17T02:24:00.990Z,11.7
2022-10-17T02:27:01.007Z,11.7
2022-10-17T02:30:01.005Z,11.6
2022-10-17T02:33:01.047Z,11.5
2022-10-17T02:36:01.034Z,11.5
2022-10-17T02:39:01.047Z,11.4
2022-10-17T02:42:01.050Z,11.4
2022-10-17T02:45:01.062Z,11.4
2022-10-17T02:48:01.069Z,11.4
2022-10-17T02:51:01.110Z,11.4
2022-10-17T02:54:01.096Z,11.4
2022-10-17T02:57:01.122Z,11.3
2022-10-17T03:00:01.114Z,11.3
2022-10-17T03:03:01.124Z,11.2
2022-10-17T03:06:01.134Z,11.1
2022-10-17T03:09:01.171Z,11.1
2022-10-17T03:12:01.160Z,11.1
2022-10-17T03:15:01.170Z,11.1
2022-10-17T03:18:01.178Z,11.1
2022-10-17T03:21:01.202Z,11.1
2022-10-17T03:24:01.208Z,11.1
2022-10-17T03:27:01.242Z,11.1
2022-10-17T03:30:01.236Z,11
2022-10-17T03:33:01.245Z,11
2022-10-17T03:36:01.255Z,11
2022-10-17T03:39:01.269Z,11
2022-10-17T03:42:01.273Z,10.9
2022-10-17T03:45:01.317Z,11
2022-10-17T03:48:01.306Z,11
2022-10-17T03:51:01.317Z,11
2022-10-17T03:54:01.327Z,10.9
2022-10-17T03:57:01.343Z,10.9
2022-10-17T04:00:01.342Z,10.8
2022-10-17T04:03:01.383Z,10.8
2022-10-17T04:06:01.375Z,10.8
2022-10-17T04:09:01.380Z,10.9
2022-10-17T04:12:01.396Z,10.8
2022-10-17T04:15:01.408Z,10.8
2022-10-17T04:18:01.444Z,10.8
2022-10-17T04:21:01.448Z,10.8
2022-10-17T04:24:01.434Z,10.8
2022-10-17T04:27:01.448Z,10.8
2022-10-17T04:30:01.461Z,10.8
2022-10-17T04:33:01.464Z,10.7
2022-10-17T04:36:01.484Z,10.8
2022-10-17T04:39:01.569Z,10.7
2022-10-17T04:42:01.510Z,10.6
2022-10-17T04:45:01.535Z,10.5
2022-10-17T04:48:01.538Z,10.4
2022-10-17T04:51:01.537Z,10.4
2022-10-17T04:54:01.555Z,10.3
2022-10-17T04:57:01.585Z,10.2
2022-10-17T05:00:01.658Z,10.2
2022-10-17T05:03:01.578Z,10.2
2022-10-17T05:06:01.594Z,10.1
2022-10-17T05:09:01.601Z,10
2022-10-17T05:12:02.681Z,10
2022-10-17T05:15:01.651Z,10
2022-10-17T05:18:01.629Z,10
2022-10-17T05:21:01.642Z,10
2022-10-17T05:24:01.649Z,10
2022-10-17T05:27:01.661Z,10
2022-10-17T05:30:01.672Z,10
2022-10-17T05:33:01.704Z,10
2022-10-17T05:36:01.686Z,9.9
2022-10-17T05:39:01.700Z,9.9
2022-10-17T05:42:01.743Z,9.9
2022-10-17T05:45:01.724Z,9.9
2022-10-17T05:48:01.728Z,9.9
2022-10-17T05:51:01.764Z,9.9
2022-10-17T05:54:01.747Z,9.9
2022-10-17T05:57:01.757Z,9.9
2022-10-17T06:00:01.760Z,9.9
2022-10-17T06:03:01.772Z,9.9
2022-10-17T06:06:01.773Z,10
2022-10-17T06:09:01.809Z,10.1
2022-10-17T06:12:01.790Z,10.1
2022-10-17T06:15:01.793Z,10.2
2022-10-17T06:18:01.806Z,10.3
2022-10-17T06:21:01.810Z,10.4
2022-10-17T06:24:01.825Z,10.4
2022-10-17T06:27:01.853Z,10.5
2022-10-17T06:30:01.836Z,10.6
2022-10-17T06:33:01.841Z,10.6
2022-10-17T06:36:01.874Z,10.7
2022-10-17T06:39:01.876Z,10.8
2022-10-17T06:42:02.045Z,10.9
2022-10-17T06:45:01.893Z,11
2022-10-17T06:48:01.875Z,11.2
2022-10-17T06:51:01.875Z,11.4
2022-10-17T06:54:01.886Z,11.5
2022-10-17T06:57:01.892Z,11.7
2022-10-17T07:00:01.897Z,11.8
2022-10-17T07:03:01.932Z,12
2022-10-17T07:06:01.905Z,12.2
2022-10-17T07:09:01.922Z,12.5
2022-10-17T07:12:01.921Z,12.9
2022-10-17T07:15:01.927Z,13.4
2022-10-17T07:18:01.926Z,14
2022-10-17T07:21:01.994Z,14.5
2022-10-17T07:24:01.938Z,15
2022-10-17T07:27:01.950Z,15.4
2022-10-17T07:30:01.954Z,15.8
2022-10-17T07:33:01.959Z,16.3
2022-10-17T07:36:01.964Z,16.6
2022-10-17T07:39:02.002Z,16.8
2022-10-17T07:42:01.977Z,16.9
2022-10-17T07:45:01.984Z,17.1
2022-10-17T07:48:01.989Z,17.1
2022-10-17T07:51:01.986Z,17.1
2022-10-17T07:54:01.999Z,17.1
2022-10-17T07:57:02.027Z,17.1
2022-10-17T08:00:01.998Z,17.1
2022-10-17T08:03:02.000Z,17.3
2022-10-17T08:06:02.007Z,17.6
2022-10-17T08:09:02.003Z,18
2022-10-17T08:12:02.015Z,18.3
2022-10-17T08:15:02.048Z,18.4
2022-10-17T08:18:02.027Z,18.7
2022-10-17T08:21:02.024Z,19.1
2022-10-17T08:24:02.025Z,19.6
2022-10-17T08:27:02.034Z,20
2022-10-17T08:30:02.030Z,20.4
2022-10-17T08:33:02.062Z,20.6
2022-10-17T08:36:02.037Z,20.8
2022-10-17T08:39:02.040Z,20.7
2022-10-17T08:42:02.049Z,20.7
2022-10-17T08:45:02.054Z,20.7
2022-10-17T08:48:02.053Z,20.7
2022-10-17T08:51:02.074Z,20.7
2022-10-17T08:54:02.059Z,20.9
2022-10-17T08:57:02.055Z,21.1
2022-10-17T09:00:02.060Z,21.2
2022-10-17T09:03:02.119Z,21.4
2022-10-17T09:06:02.061Z,21.5
2022-10-17T09:09:02.097Z,21.7
2022-10-17T09:12:02.064Z,21.9
2022-10-17T09:15:02.067Z,22.1
2022-10-17T09:18:02.066Z,22.2
2022-10-17T09:21:02.082Z,22.5
2022-10-17T09:24:09.257Z,22.8
2022-10-17T09:27:02.113Z,23.2
2022-10-17T09:30:02.112Z,23.5
2022-10-17T09:33:02.114Z,23.6
2022-10-17T09:36:02.122Z,23.8
2022-10-17T09:39:02.132Z,23.8
2022-10-17T09:42:02.145Z,23.9
2022-10-17T09:45:02.219Z,24
2022-10-17T09:48:02.199Z,23.9
2022-10-17T09:51:14.526Z,23.9
2022-10-17T09:54:02.225Z,23.9
2022-10-17T09:57:02.230Z,24
2022-10-17T10:00:02.323Z,24.1
2022-10-17T10:03:02.283Z,24.2
2022-10-17T10:06:02.275Z,24.3
2022-10-17T10:09:02.286Z,24.2
2022-10-17T10:12:02.297Z,24.2
2022-10-17T10:15:02.320Z,24.1
2022-10-17T10:18:02.338Z,24
2022-10-17T10:21:02.380Z,23.9
2022-10-17T10:24:02.360Z,23.9
2022-10-17T10:27:02.374Z,24.1
2022-10-17T10:30:02.385Z,24.3
2022-10-17T10:33:02.398Z,24.6
2022-10-17T10:36:02.411Z,24.9
2022-10-17T10:39:03.892Z,25.1
2022-10-17T10:42:02.457Z,25.4
2022-10-17T10:45:02.470Z,25.7
2022-10-17T10:48:02.476Z,25.9
2022-10-17T10:51:02.508Z,25.6
2022-10-17T10:54:02.517Z,25.2
2022-10-17T10:57:02.561Z,24.8
2022-10-17T11:00:02.546Z,24.5
2022-10-17T11:03:02.677Z,24.6
2022-10-17T11:06:02.581Z,24.8
2022-10-17T11:09:02.597Z,24.8
2022-10-17T11:12:02.610Z,25
2022-10-17T11:15:02.655Z,25.3
2022-10-17T11:18:02.643Z,25.6
2022-10-17T11:21:02.665Z,25.7
2022-10-17T11:24:04.601Z,25.8
2022-10-17T11:27:02.698Z,25.6
2022-10-17T11:30:02.716Z,25.4
2022-10-17T11:33:02.756Z,25.1
2022-10-17T11:36:02.760Z,24.7
2022-10-17T11:39:02.778Z,24.5
2022-10-17T11:42:03.419Z,24.4
2022-10-17T11:45:02.813Z,24.1
2022-10-17T11:48:02.929Z,24
2022-10-17T11:54:02.852Z,23.8
2022-10-17T11:57:02.866Z,24
2022-10-17T12:00:02.873Z,24.1
2022-10-17T12:03:02.884Z,24.2
2022-10-17T12:06:02.894Z,24.2
2022-10-17T12:09:02.921Z,24.2
2022-10-17T12:12:02.901Z,24.2
2022-10-17T12:15:02.921Z,24.1
2022-10-17T12:18:02.948Z,24
2022-10-17T12:21:02.937Z,23.9
2022-10-17T12:24:02.954Z,23.8
2022-10-17T12:27:02.994Z,23.8
2022-10-17T12:30:02.982Z,23.8
2022-10-17T12:33:07.280Z,23.8
2022-10-17T12:36:03.004Z,23.8
2022-10-17T12:39:03.017Z,23.9
2022-10-17T12:42:03.034Z,24
2022-10-17T12:45:03.071Z,24.1
2022-10-17T12:48:03.056Z,24.1
2022-10-17T12:51:23.991Z,24.1
2022-10-17T12:54:03.071Z,24
2022-10-17T12:57:03.073Z,24.1
2022-10-17T13:00:03.084Z,24.1
2022-10-17T13:03:03.146Z,24.2
2022-10-17T13:06:03.109Z,24.3
2022-10-17T13:09:03.993Z,24.3
2022-10-17T13:12:03.144Z,24.3
2022-10-17T13:15:03.145Z,24.3
2022-10-17T13:18:03.166Z,24.2
2022-10-17T13:21:03.199Z,24.2
2022-10-17T13:24:03.190Z,24.2
2022-10-17T13:27:03.205Z,24.3
2022-10-17T13:30:03.217Z,24.3
2022-10-17T13:33:03.237Z,24.3
2022-10-17T13:36:03.250Z,24.3
2022-10-17T13:39:03.287Z,24.2
2022-10-17T13:42:03.281Z,24.2
2022-10-17T13:45:03.296Z,24.2
2022-10-17T13:48:03.298Z,24.2
2022-10-17T13:51:04.521Z,24.1
2022-10-17T13:54:03.326Z,24.1
2022-10-17T13:57:03.369Z,24.1
2022-10-17T14:00:04.392Z,24.1
2022-10-17T14:03:03.367Z,24
2022-10-17T14:06:03.455Z,24
2022-10-17T14:09:03.401Z,23.9
2022-10-17T14:12:03.409Z,23.8
2022-10-17T14:15:11.274Z,23.6
2022-10-17T14:18:07.472Z,23.5
2022-10-17T14:24:03.477Z,23.3
2022-10-17T14:27:03.500Z,23.2
2022-10-17T14:30:03.536Z,23.2
2022-10-17T14:33:03.582Z,23.1
2022-10-17T14:36:03.542Z,23
2022-10-17T14:39:03.572Z,22.9
2022-10-17T14:42:04.630Z,22.8
2022-10-17T14:45:03.604Z,22.7
2022-10-17T14:48:03.628Z,22.6
2022-10-17T14:51:03.669Z,22.6
2022-10-17T14:54:05.360Z,22.5
2022-10-17T14:57:03.650Z,22.5
2022-10-17T15:00:03.670Z,22.4
2022-10-17T15:03:03.731Z,22.4
2022-10-17T15:06:03.695Z,22.3
2022-10-17T15:09:03.737Z,22.3
2022-10-17T15:12:03.727Z,22.2
2022-10-17T15:15:03.748Z,22.1
2022-10-17T15:18:03.773Z,22.1
2022-10-17T15:21:06.660Z,22
2022-10-17T15:24:03.774Z,22
2022-10-17T15:27:03.825Z,21.9
2022-10-17T15:30:03.812Z,21.9
2022-10-17T15:33:03.833Z,21.8
2022-10-17T15:36:03.860Z,21.7
2022-10-17T15:39:03.868Z,21.7
2022-10-17T15:42:03.885Z,21.7
2022-10-17T15:45:03.987Z,21.6
2022-10-17T15:48:03.920Z,21.5
2022-10-17T15:51:03.934Z,21.4
2022-10-17T15:54:03.989Z,21.4
2022-10-17T15:57:03.970Z,21.3
2022-10-17T16:00:03.997Z,21.2
2022-10-17T16:03:04.032Z,21.2
2022-10-17T16:06:04.028Z,21.1
2022-10-17T16:09:04.037Z,21.1
2022-10-17T16:12:04.050Z,21
2022-10-17T16:15:04.059Z,21
2022-10-17T16:18:05.864Z,21
2022-10-17T16:21:04.124Z,21
2022-10-17T16:24:04.124Z,21
2022-10-17T16:27:04.134Z,21
2022-10-17T16:30:04.154Z,20.9
2022-10-17T16:33:04.173Z,20.8
2022-10-17T16:36:04.194Z,20.7
2022-10-17T16:39:04.243Z,20.6
2022-10-17T16:42:04.236Z,20.6
2022-10-17T16:45:04.248Z,20.5
2022-10-17T16:48:04.269Z,20.5
2022-10-17T16:51:04.285Z,20.4
2022-10-17T16:54:04.304Z,20.4
2022-10-17T16:57:04.344Z,20.4
2022-10-17T17:00:04.333Z,20.3
2022-10-17T17:03:04.352Z,20.2
2022-10-17T17:06:04.367Z,20.2
2022-10-17T17:09:04.379Z,20.1
2022-10-17T17:12:04.407Z,20.1
2022-10-17T17:15:04.447Z,20
2022-10-17T17:18:05.674Z,20
2022-10-17T17:21:04.453Z,20
2022-10-17T17:24:04.479Z,20
2022-10-17T17:27:04.492Z,20
2022-10-17T17:30:04.517Z,20
2022-10-17T17:33:04.571Z,20
2022-10-17T17:36:04.563Z,20
2022-10-17T17:39:04.582Z,20
2022-10-17T17:42:04.601Z,20
2022-10-17T17:45:04.619Z,20
2022-10-17T17:48:04.637Z,19.9
2022-10-17T17:51:04.674Z,19.9
2022-10-17T17:54:04.664Z,19.9
2022-10-17T17:57:04.675Z,19.9
2022-10-17T18:00:04.693Z,19.8
2022-10-17T18:03:04.715Z,19.8
2022-10-17T18:06:04.734Z,19.8
2022-10-17T18:09:04.777Z,19.8
2022-10-17T18:12:04.770Z,19.8
2022-10-17T18:15:04.789Z,19.9
2022-10-17T18:18:04.817Z,19.9
2022-10-17T18:21:04.835Z,19.9
2022-10-17T18:24:04.869Z,19.9
2022-10-17T18:27:04.918Z,19.9
2022-10-17T18:30:04.895Z,19.9
2022-10-17T18:33:04.910Z,19.8
2022-10-17T18:36:07.045Z,19.7
2022-10-17T18:39:04.960Z,19.6
2022-10-17T18:42:04.979Z,19.5
2022-10-17T18:45:05.008Z,19.3
2022-10-17T18:48:05.001Z,19.1
2022-10-17T18:51:05.019Z,18.8
2022-10-17T18:54:05.038Z,18.7
2022-10-17T18:57:05.128Z,18.6
2022-10-17T19:00:05.070Z,18.4
2022-10-17T19:03:05.124Z,18.3
2022-10-17T19:06:05.104Z,18.2
2022-10-17T19:09:05.131Z,18.2
2022-10-17T19:12:05.153Z,18.1
2022-10-17T19:15:05.176Z,18.1
2022-10-17T19:18:05.193Z,18
2022-10-17T19:21:05.306Z,18
2022-10-17T19:24:05.231Z,17.9
2022-10-17T19:27:05.266Z,17.9
2022-10-17T19:30:05.269Z,17.8
2022-10-17T19:33:05.298Z,17.8
2022-10-17T19:36:05.390Z,17.7
2022-10-17T19:39:05.374Z,17.7
2022-10-17T19:42:06.678Z,17.6
2022-10-17T19:45:05.364Z,17.5
2022-10-17T19:48:05.365Z,17.5
2022-10-17T19:51:05.376Z,17.4
2022-10-17T19:54:05.366Z,17.4
2022-10-17T19:57:08.001Z,17.4
2022-10-17T20:00:05.364Z,17.4
2022-10-17T20:03:05.363Z,17.4
2022-10-17T20:06:05.364Z,17.3
2022-10-17T20:09:05.370Z,17.3
2022-10-17T20:12:05.375Z,17.2
2022-10-17T20:15:05.396Z,17.3
2022-10-17T20:18:05.373Z,17.2
2022-10-17T20:21:05.377Z,17.3
2022-10-17T20:24:05.377Z,17.3
2022-10-17T20:27:05.376Z,17.3
2022-10-17T20:30:05.377Z,17.2
2022-10-17T20:33:05.405Z,17.2
2022-10-17T20:36:05.384Z,17.2
2022-10-17T20:39:05.381Z,17.2
2022-10-17T20:42:05.385Z,17.3
2022-10-17T20:45:05.384Z,17.2
2022-10-17T20:48:05.399Z,17.2
2022-10-17T20:51:05.426Z,17.2
2022-10-17T20:54:05.394Z,17.2
2022-10-17T20:57:05.515Z,17.1
2022-10-17T21:00:05.399Z,17.1
2022-10-17T21:03:05.402Z,17.1
2022-10-17T21:06:05.401Z,17
2022-10-17T21:09:05.431Z,17
2022-10-17T21:12:05.514Z,17
2022-10-17T21:15:05.432Z,17.1
2022-10-17T21:18:05.413Z,17
2022-10-17T21:21:05.418Z,17
2022-10-17T21:24:05.419Z,17
2022-10-17T21:27:05.444Z,16.9
2022-10-17T21:30:05.432Z,16.9
2022-10-17T21:33:05.429Z,16.9
2022-10-17T21:36:05.433Z,16.8
2022-10-17T21:39:05.458Z,16.8
2022-10-17T21:42:05.439Z,16.8
2022-10-17T21:45:07.570Z,16.8
2022-10-17T21:48:13.435Z,16.8
2022-10-17T21:51:05.463Z,16.8
2022-10-17T21:54:05.937Z,16.8
2022-10-17T21:57:05.542Z,16.8
2022-10-17T22:00:05.479Z,16.8
2022-10-17T22:03:05.499Z,16.8
2022-10-17T22:06:33.384Z,16.7
2022-10-17T22:09:05.486Z,16.7
2022-10-17T22:12:05.481Z,16.7
2022-10-17T22:15:05.553Z,16.7
2022-10-17T22:18:05.485Z,16.7
2022-10-17T22:21:05.525Z,16.6
2022-10-17T22:24:05.590Z,16.6
2022-10-17T22:27:05.504Z,16.6
2022-10-17T22:30:05.500Z,16.6
2022-10-17T22:33:05.508Z,16.6
2022-10-17T22:36:05.518Z,16.6
2022-10-17T22:39:05.536Z,16.5
2022-10-17T22:42:05.521Z,16.5
2022-10-17T22:45:05.541Z,16.5
2022-10-17T22:48:05.539Z,16.5
2022-10-17T22:51:05.554Z,16.5
2022-10-17T22:54:05.544Z,16.5
2022-10-17T22:57:05.578Z,16.4
2022-10-17T23:00:05.556Z,16.4
2022-10-17T23:03:05.566Z,16.4
2022-10-17T23:06:05.571Z,16.4
2022-10-17T23:09:05.575Z,16.4
2022-10-17T23:12:05.578Z,16.4
2022-10-17T23:15:05.615Z,16.4
2022-10-17T23:18:05.592Z,16.4
2022-10-17T23:21:05.596Z,16.3
2022-10-17T23:24:05.604Z,16.3
2022-10-17T23:27:05.603Z,16.3
2022-10-17T23:30:05.615Z,16.3
2022-10-17T23:33:05.644Z,16.2
2022-10-17T23:36:05.634Z,16.2
2022-10-17T23:39:05.633Z,16.2
2022-10-17T23:42:05.640Z,16.2
2022-10-17T23:45:05.646Z,16.1
2022-10-17T23:48:05.660Z,16.1
2022-10-17T23:51:05.678Z,16.1
2022-10-17T23:54:05.660Z,16.1
2022-10-17T23:57:05.674Z,16.1
